Hitomimaru — JD4014 — position and weather

sailwx.info

Track history (hours):
 
Tides and Currents Weather Stations Pressure Air Temp Water Temp Dewpoint Dewpoint Depression Visibility Wind Speed Wind Dir Waves Ship Positions

Hitomimaru

Last reported at 2018-Jun-21 11:30 UTC. Time now 2018-Jun-21 11:41 UTC.
Position N 35°21' E 139°49'.

Length 35 m; draft 3.9 m.

Type: Tug. MMSI: 431007965.

Date/timePositionNaut miles runAvg speedWind from/ knotsBaromVisibWave heightAir tempDewpointWater temp
2018-Jun-21 11:30N 35°21' E 139°49'0 0.0
2018-Jun-21 11:00N 35°21' E 139°49'0 0.1
2018-Jun-21 10:31N 35°21' E 139°49'0 0.1
2018-Jun-21 10:00N 35°21' E 139°49'0 0.1
2018-Jun-21 09:31N 35°21' E 139°49'0 0.1
2018-Jun-21 08:59N 35°21' E 139°49'0 0.1
2018-Jun-21 08:30N 35°21' E 139°49'0 0.1
2018-Jun-21 08:01N 35°21' E 139°49'0 0.1
2018-Jun-21 07:30N 35°21' E 139°49'0 0.2
2018-Jun-21 07:00N 35°21' E 139°49'0 0.2
2018-Jun-21 06:30N 35°21' E 139°49'0 0.3
2018-Jun-21 06:00N 35°21' E 139°49'0 0.0
2018-Jun-21 05:30N 35°21' E 139°49'0 0.0
2018-Jun-21 05:01N 35°21' E 139°49'0 0.1
2018-Jun-21 04:30N 35°21' E 139°49'0 0.1
2018-Jun-21 04:00N 35°21' E 139°49'0 0.1
2018-Jun-21 03:30N 35°21' E 139°49'0 0.2
2018-Jun-21 03:00N 35°21' E 139°49'0 0.3
2018-Jun-21 02:30N 35°21' E 139°49'0 0.3
2018-Jun-21 02:00N 35°21' E 139°49'0 0.3
2018-Jun-21 01:30N 35°21' E 139°49'0 0.5
2018-Jun-21 01:01N 35°21' E 139°49'1 2.3
2018-Jun-21 00:30N 35°22' E 139°49'3 5.1
2018-Jun-21 00:00N 35°22' E 139°52'2 0.4
2018-Jun-20 18:32N 35°22' E 139°54'0 0.0
2018-Jun-20 18:27N 35°22' E 139°54'0 0.0
2018-Jun-20 17:59N 35°22' E 139°54'0 0.0
2018-Jun-20 17:24N 35°22' E 139°54'0 0.0
2018-Jun-20 16:59N 35°22' E 139°54'0 0.0
2018-Jun-20 10:54N 35°22' E 139°54'0 0.0
2018-Jun-20 00:01N 35°22' E 139°54'0 5.5
2018-Jun-19 23:58N 35°22' E 139°54'1 1.5
2018-Jun-19 23:29N 35°22' E 139°53'0 0.9
2018-Jun-19 23:00N 35°22' E 139°53'1 0.2
2018-Jun-19 20:28N 35°22' E 139°54'0 0.0
2018-Jun-19 17:16N 35°22' E 139°54'0 0.0
2018-Jun-19 16:51N 35°22' E 139°54'0 0.0
2018-Jun-19 05:27N 35°22' E 139°54'0 0.0
2018-Jun-18 09:10N 35°22' E 139°53'1 5.2
2018-Jun-18 09:00N 35°22' E 139°52'0 0.2
2018-Jun-18 08:31N 35°22' E 139°52'0 0.5
2018-Jun-18 08:00N 35°22' E 139°53'0 0.0
2018-Jun-18 07:29N 35°22' E 139°53'0 0.8
2018-Jun-18 06:56N 35°22' E 139°53'1 2.5
2018-Jun-18 06:30N 35°22' E 139°52'0 0.5
2018-Jun-18 06:00N 35°22' E 139°52'0 0.8
2018-Jun-18 05:25N 35°22' E 139°52'0 0.8
2018-Jun-18 04:53N 35°22' E 139°53'0 0.0
2018-Jun-18 04:28N 35°22' E 139°53'0 0.0
2018-Jun-18 03:58N 35°22' E 139°53'0 0.0
2018-Jun-18 03:29N 35°22' E 139°53'1 2.0
2018-Jun-18 02:59N 35°21' E 139°54'3 6.7
2018-Jun-18 02:29N 35°22' E 139°50'2 3.6
2018-Jun-18 02:00N 35°21' E 139°49'0 0.0
2018-Jun-18 01:30N 35°21' E 139°49'1 1.3
2018-Jun-18 01:00N 35°21' E 139°49'2 5.0
2018-Jun-18 00:30N 35°23' E 139°46'3 5.4
2018-Jun-18 00:00N 35°23' E 139°49'2 4.1
2018-Jun-17 23:30N 35°22' E 139°52'0 0.0
2018-Jun-17 23:00N 35°22' E 139°52'1 1.2
2018-Jun-17 22:29N 35°23' E 139°51'3 5.5
2018-Jun-17 22:00N 35°24' E 139°49'2 4.4
2018-Jun-17 21:28N 35°26' E 139°50'1 2.8
2018-Jun-17 20:58N 35°25' E 139°51'3 6.3
2018-Jun-17 20:30N 35°22' E 139°52'0 0.4
2018-Jun-17 20:00N 35°22' E 139°52'2 0.1
2018-Jun-17 00:26N 35°22' E 139°54'0 0.0
2018-Jun-16 23:47N 35°22' E 139°54'0 0.0
2018-Jun-16 18:40N 35°22' E 139°54'0 0.0
2018-Jun-16 13:12N 35°22' E 139°54'0 0.0
2018-Jun-16 12:17N 35°22' E 139°54'0 0.0
2018-Jun-16 11:58N 35°22' E 139°54'0 0.0
2018-Jun-16 11:30N 35°22' E 139°54'0 0.0
2018-Jun-16 11:00N 35°22' E 139°54'0 0.0
2018-Jun-16 06:32N 35°22' E 139°54'0 0.0
2018-Jun-16 06:27N 35°22' E 139°54'0 0.0
2018-Jun-16 05:59N 35°22' E 139°54'2 3.0
2018-Jun-16 05:28N 35°22' E 139°52'3 6.1
2018-Jun-16 05:01N 35°21' E 139°49'0 0.2
2018-Jun-16 04:30N 35°21' E 139°49'0 0.0
2018-Jun-16 04:00N 35°21' E 139°49'0 0.2
2018-Jun-16 03:30N 35°21' E 139°49'2 4.0
2018-Jun-16 03:00N 35°23' E 139°48'0 0.8
2018-Jun-16 02:30N 35°23' E 139°48'0 0.0
2018-Jun-16 01:59N 35°23' E 139°48'3 5.5
2018-Jun-16 01:30N 35°22' E 139°51'2 0.1
2018-Jun-15 01:46N 35°22' E 139°54'2 7.9
2018-Jun-15 01:29N 35°23' E 139°51'3 5.6
2018-Jun-15 01:00N 35°21' E 139°49'0 0.1
2018-Jun-15 00:30N 35°20' E 139°49'0 0.7
2018-Jun-15 00:00N 35°21' E 139°49'0 0.5
2018-Jun-14 23:31N 35°21' E 139°49'0 0.2
2018-Jun-14 23:00N 35°21' E 139°49'0 0.2
2018-Jun-14 22:30N 35°21' E 139°49'0 0.4
2018-Jun-14 22:01N 35°21' E 139°49'0 0.1
2018-Jun-14 21:30N 35°21' E 139°49'0 0.1
2018-Jun-14 21:00N 35°21' E 139°49'0 0.5
2018-Jun-14 20:30N 35°20' E 139°49'0 0.7
2018-Jun-14 20:01N 35°21' E 139°49'0 0.7
2018-Jun-14 19:30N 35°20' E 139°49'0 0.1
2018-Jun-14 19:00N 35°20' E 139°49'0 0.1
2018-Jun-14 18:28N 35°20' E 139°49'0 0.0
2018-Jun-14 18:00N 35°20' E 139°49'0 0.1
2018-Jun-14 17:30N 35°20' E 139°49'0 0.1
2018-Jun-14 17:00N 35°20' E 139°49'0 0.0
2018-Jun-14 16:30N 35°20' E 139°49'0 0.0
2018-Jun-14 16:00N 35°20' E 139°49'0 0.0
2018-Jun-14 15:30N 35°20' E 139°49'0 0.0
2018-Jun-14 15:00N 35°20' E 139°49'0 0.0
2018-Jun-14 14:30N 35°20' E 139°49'0 0.0
2018-Jun-14 14:00N 35°20' E 139°49'0 0.0
2018-Jun-14 13:30N 35°20' E 139°49'0 0.2
2018-Jun-14 13:01N 35°21' E 139°49'0 0.4
2018-Jun-14 12:30N 35°21' E 139°49'0 0.1
2018-Jun-14 12:00N 35°21' E 139°49'0 0.1
2018-Jun-14 11:29N 35°21' E 139°49'0 0.1
2018-Jun-14 11:00N 35°21' E 139°49'0 0.2
2018-Jun-14 10:30N 35°21' E 139°49'0 0.3
2018-Jun-14 10:01N 35°21' E 139°49'0 0.4
2018-Jun-14 09:31N 35°21' E 139°49'0 0.2
2018-Jun-14 09:00N 35°21' E 139°49'0 0.4
2018-Jun-14 08:30N 35°20' E 139°49'0 0.5
2018-Jun-14 08:00N 35°21' E 139°49'0 0.0
2018-Jun-14 07:31N 35°21' E 139°49'0 0.2
2018-Jun-14 07:00N 35°21' E 139°49'0 0.3
2018-Jun-14 06:30N 35°21' E 139°49'0 0.3
2018-Jun-14 06:00N 35°21' E 139°49'0 0.3
2018-Jun-14 05:30N 35°21' E 139°49'0 0.1
2018-Jun-14 05:00N 35°21' E 139°49'0 0.1
2018-Jun-14 04:30N 35°21' E 139°49'0 0.4
2018-Jun-14 04:00N 35°21' E 139°49'0 0.3
2018-Jun-14 03:30N 35°21' E 139°49'0 0.1
2018-Jun-14 02:58N 35°21' E 139°49'0 0.2
2018-Jun-14 02:30N 35°21' E 139°49'0 0.1
2018-Jun-14 02:00N 35°21' E 139°49'0 0.5
2018-Jun-14 01:30N 35°21' E 139°49'1 1.7
2018-Jun-14 01:00N 35°21' E 139°49'2 4.4
2018-Jun-14 00:30N 35°22' E 139°51'2 0.1
2018-Jun-13 05:42N 35°22' E 139°54'1 7.1
2018-Jun-13 05:30N 35°22' E 139°52'0 0.1
2018-Jun-13 05:00N 35°22' E 139°52'0 0.6
2018-Jun-13 04:24N 35°22' E 139°52'2 4.4
2018-Jun-13 04:00N 35°23' E 139°50'3 5.3
2018-Jun-13 03:30N 35°26' E 139°49'0 1.0
2018-Jun-13 03:00N 35°26' E 139°50'3 6.1
2018-Jun-13 02:30N 35°23' E 139°51'2 0.2
2018-Jun-12 13:14N 35°22' E 139°54'1 4.0
2018-Jun-12 13:00N 35°22' E 139°53'0 0.1
2018-Jun-12 12:21N 35°22' E 139°53'0 0.2
2018-Jun-12 11:59N 35°22' E 139°53'0 0.1
2018-Jun-12 11:28N 35°22' E 139°53'1 2.1
2018-Jun-12 11:01N 35°22' E 139°52'0 0.2
2018-Jun-12 10:30N 35°22' E 139°52'1 2.5
2018-Jun-12 10:00N 35°23' E 139°51'1 2.6
2018-Jun-12 09:30N 35°21' E 139°51'2 3.4
2018-Jun-12 09:00N 35°22' E 139°49'0 0.1
2018-Jun-12 08:29N 35°22' E 139°49'1 1.4
2018-Jun-12 08:00N 35°22' E 139°50'0 0.0
2018-Jun-12 07:30N 35°22' E 139°50'0 0.0
2018-Jun-12 07:01N 35°22' E 139°50'1 1.8
2018-Jun-12 06:30N 35°22' E 139°51'2 3.5
2018-Jun-12 06:00N 35°23' E 139°49'2 4.3
2018-Jun-12 05:30N 35°24' E 139°51'3 0.6
2018-Jun-12 00:00N 35°22' E 139°54'0 0.0
2018-Jun-11 21:05N 35°22' E 139°54'0 0.0
2018-Jun-11 20:48N 35°22' E 139°54'0 0.0
2018-Jun-11 20:22N 35°22' E 139°54'0 0.0
2018-Jun-11 19:59N 35°22' E 139°54'0 0.0
2018-Jun-11 19:27N 35°22' E 139°54'0 0.0
2018-Jun-11 16:33N 35°22' E 139°54'0 0.0
2018-Jun-11 16:12N 35°22' E 139°54'0 0.0
2018-Jun-11 15:55N 35°22' E 139°54'0 0.0
2018-Jun-11 15:14N 35°22' E 139°54'  
Track history (hours):
 
Tides and Currents Weather Stations Pressure Air Temp Water Temp Dewpoint Dewpoint Depression Visibility Wind Speed Wind Dir Waves Ship Positions

Hitomimaru

Last reported at 2018-Jun-21 11:30 UTC. Time now 2018-Jun-21 11:41 UTC.
Position N 35°21' E 139°49'.

Length 35 m; draft 3.9 m.

Type: Tug. MMSI: 431007965.

Date/timePositionNaut miles runAvg speedWind from/ knotsBaromVisibWave heightAir tempDewpointWater temp
2018-Jun-21 11:30N 35°21' E 139°49'0 0.0
2018-Jun-21 11:00N 35°21' E 139°49'0 0.1
2018-Jun-21 10:31N 35°21' E 139°49'0 0.1
2018-Jun-21 10:00N 35°21' E 139°49'0 0.1
2018-Jun-21 09:31N 35°21' E 139°49'0 0.1
2018-Jun-21 08:59N 35°21' E 139°49'0 0.1
2018-Jun-21 08:30N 35°21' E 139°49'0 0.1
2018-Jun-21 08:01N 35°21' E 139°49'0 0.1
2018-Jun-21 07:30N 35°21' E 139°49'0 0.2
2018-Jun-21 07:00N 35°21' E 139°49'0 0.2
2018-Jun-21 06:30N 35°21' E 139°49'0 0.3
2018-Jun-21 06:00N 35°21' E 139°49'0 0.0
2018-Jun-21 05:30N 35°21' E 139°49'0 0.0
2018-Jun-21 05:01N 35°21' E 139°49'0 0.1
2018-Jun-21 04:30N 35°21' E 139°49'0 0.1
2018-Jun-21 04:00N 35°21' E 139°49'0 0.1
2018-Jun-21 03:30N 35°21' E 139°49'0 0.2
2018-Jun-21 03:00N 35°21' E 139°49'0 0.3
2018-Jun-21 02:30N 35°21' E 139°49'0 0.3
2018-Jun-21 02:00N 35°21' E 139°49'0 0.3
2018-Jun-21 01:30N 35°21' E 139°49'0 0.5
2018-Jun-21 01:01N 35°21' E 139°49'1 2.3
2018-Jun-21 00:30N 35°22' E 139°49'3 5.1
2018-Jun-21 00:00N 35°22' E 139°52'2 0.4
2018-Jun-20 18:32N 35°22' E 139°54'0 0.0
2018-Jun-20 18:27N 35°22' E 139°54'0 0.0
2018-Jun-20 17:59N 35°22' E 139°54'0 0.0
2018-Jun-20 17:24N 35°22' E 139°54'0 0.0
2018-Jun-20 16:59N 35°22' E 139°54'0 0.0
2018-Jun-20 10:54N 35°22' E 139°54'0 0.0
2018-Jun-20 00:01N 35°22' E 139°54'0 5.5
2018-Jun-19 23:58N 35°22' E 139°54'1 1.5
2018-Jun-19 23:29N 35°22' E 139°53'0 0.9
2018-Jun-19 23:00N 35°22' E 139°53'1 0.2
2018-Jun-19 20:28N 35°22' E 139°54'0 0.0
2018-Jun-19 17:16N 35°22' E 139°54'0 0.0
2018-Jun-19 16:51N 35°22' E 139°54'0 0.0
2018-Jun-19 05:27N 35°22' E 139°54'0 0.0
2018-Jun-18 09:10N 35°22' E 139°53'1 5.2
2018-Jun-18 09:00N 35°22' E 139°52'0 0.2
2018-Jun-18 08:31N 35°22' E 139°52'0 0.5
2018-Jun-18 08:00N 35°22' E 139°53'0 0.0
2018-Jun-18 07:29N 35°22' E 139°53'0 0.8
2018-Jun-18 06:56N 35°22' E 139°53'1 2.5
2018-Jun-18 06:30N 35°22' E 139°52'0 0.5
2018-Jun-18 06:00N 35°22' E 139°52'0 0.8
2018-Jun-18 05:25N 35°22' E 139°52'0 0.8
2018-Jun-18 04:53N 35°22' E 139°53'0 0.0
2018-Jun-18 04:28N 35°22' E 139°53'0 0.0
2018-Jun-18 03:58N 35°22' E 139°53'0 0.0
2018-Jun-18 03:29N 35°22' E 139°53'1 2.0
2018-Jun-18 02:59N 35°21' E 139°54'3 6.7
2018-Jun-18 02:29N 35°22' E 139°50'2 3.6
2018-Jun-18 02:00N 35°21' E 139°49'0 0.0
2018-Jun-18 01:30N 35°21' E 139°49'1 1.3
2018-Jun-18 01:00N 35°21' E 139°49'2 5.0
2018-Jun-18 00:30N 35°23' E 139°46'3 5.4
2018-Jun-18 00:00N 35°23' E 139°49'2 4.1
2018-Jun-17 23:30N 35°22' E 139°52'0 0.0
2018-Jun-17 23:00N 35°22' E 139°52'1 1.2
2018-Jun-17 22:29N 35°23' E 139°51'3 5.5
2018-Jun-17 22:00N 35°24' E 139°49'2 4.4
2018-Jun-17 21:28N 35°26' E 139°50'1 2.8
2018-Jun-17 20:58N 35°25' E 139°51'3 6.3
2018-Jun-17 20:30N 35°22' E 139°52'0 0.4
2018-Jun-17 20:00N 35°22' E 139°52'2 0.1
2018-Jun-17 00:26N 35°22' E 139°54'0 0.0
2018-Jun-16 23:47N 35°22' E 139°54'0 0.0
2018-Jun-16 18:40N 35°22' E 139°54'0 0.0
2018-Jun-16 13:12N 35°22' E 139°54'0 0.0
2018-Jun-16 12:17N 35°22' E 139°54'0 0.0
2018-Jun-16 11:58N 35°22' E 139°54'0 0.0
2018-Jun-16 11:30N 35°22' E 139°54'0 0.0
2018-Jun-16 11:00N 35°22' E 139°54'0 0.0
2018-Jun-16 06:32N 35°22' E 139°54'0 0.0
2018-Jun-16 06:27N 35°22' E 139°54'0 0.0
2018-Jun-16 05:59N 35°22' E 139°54'2 3.0
2018-Jun-16 05:28N 35°22' E 139°52'3 6.1
2018-Jun-16 05:01N 35°21' E 139°49'0 0.2
2018-Jun-16 04:30N 35°21' E 139°49'0 0.0
2018-Jun-16 04:00N 35°21' E 139°49'0 0.2
2018-Jun-16 03:30N 35°21' E 139°49'2 4.0
2018-Jun-16 03:00N 35°23' E 139°48'0 0.8
2018-Jun-16 02:30N 35°23' E 139°48'0 0.0
2018-Jun-16 01:59N 35°23' E 139°48'3 5.5
2018-Jun-16 01:30N 35°22' E 139°51'2 0.1
2018-Jun-15 01:46N 35°22' E 139°54'2 7.9
2018-Jun-15 01:29N 35°23' E 139°51'3 5.6
2018-Jun-15 01:00N 35°21' E 139°49'0 0.1
2018-Jun-15 00:30N 35°20' E 139°49'0 0.7
2018-Jun-15 00:00N 35°21' E 139°49'0 0.5
2018-Jun-14 23:31N 35°21' E 139°49'0 0.2
2018-Jun-14 23:00N 35°21' E 139°49'0 0.2
2018-Jun-14 22:30N 35°21' E 139°49'0 0.4
2018-Jun-14 22:01N 35°21' E 139°49'0 0.1
2018-Jun-14 21:30N 35°21' E 139°49'0 0.1
2018-Jun-14 21:00N 35°21' E 139°49'0 0.5
2018-Jun-14 20:30N 35°20' E 139°49'0 0.7
2018-Jun-14 20:01N 35°21' E 139°49'0 0.7
2018-Jun-14 19:30N 35°20' E 139°49'0 0.1
2018-Jun-14 19:00N 35°20' E 139°49'0 0.1
2018-Jun-14 18:28N 35°20' E 139°49'0 0.0
2018-Jun-14 18:00N 35°20' E 139°49'0 0.1
2018-Jun-14 17:30N 35°20' E 139°49'0 0.1
2018-Jun-14 17:00N 35°20' E 139°49'0 0.0
2018-Jun-14 16:30N 35°20' E 139°49'0 0.0
2018-Jun-14 16:00N 35°20' E 139°49'0 0.0
2018-Jun-14 15:30N 35°20' E 139°49'0 0.0
2018-Jun-14 15:00N 35°20' E 139°49'0 0.0
2018-Jun-14 14:30N 35°20' E 139°49'0 0.0
2018-Jun-14 14:00N 35°20' E 139°49'0 0.0
2018-Jun-14 13:30N 35°20' E 139°49'0 0.2
2018-Jun-14 13:01N 35°21' E 139°49'0 0.4
2018-Jun-14 12:30N 35°21' E 139°49'0 0.1
2018-Jun-14 12:00N 35°21' E 139°49'0 0.1
2018-Jun-14 11:29N 35°21' E 139°49'0 0.1
2018-Jun-14 11:00N 35°21' E 139°49'0 0.2
2018-Jun-14 10:30N 35°21' E 139°49'0 0.3
2018-Jun-14 10:01N 35°21' E 139°49'0 0.4
2018-Jun-14 09:31N 35°21' E 139°49'0 0.2
2018-Jun-14 09:00N 35°21' E 139°49'0 0.4
2018-Jun-14 08:30N 35°20' E 139°49'0 0.5
2018-Jun-14 08:00N 35°21' E 139°49'0 0.0
2018-Jun-14 07:31N 35°21' E 139°49'0 0.2
2018-Jun-14 07:00N 35°21' E 139°49'0 0.3
2018-Jun-14 06:30N 35°21' E 139°49'0 0.3
2018-Jun-14 06:00N 35°21' E 139°49'0 0.3
2018-Jun-14 05:30N 35°21' E 139°49'0 0.1
2018-Jun-14 05:00N 35°21' E 139°49'0 0.1
2018-Jun-14 04:30N 35°21' E 139°49'0 0.4
2018-Jun-14 04:00N 35°21' E 139°49'0 0.3
2018-Jun-14 03:30N 35°21' E 139°49'0 0.1
2018-Jun-14 02:58N 35°21' E 139°49'0 0.2
2018-Jun-14 02:30N 35°21' E 139°49'0 0.1
2018-Jun-14 02:00N 35°21' E 139°49'0 0.5
2018-Jun-14 01:30N 35°21' E 139°49'1 1.7
2018-Jun-14 01:00N 35°21' E 139°49'2 4.4
2018-Jun-14 00:30N 35°22' E 139°51'2 0.1
2018-Jun-13 05:42N 35°22' E 139°54'1 7.1
2018-Jun-13 05:30N 35°22' E 139°52'0 0.1
2018-Jun-13 05:00N 35°22' E 139°52'0 0.6
2018-Jun-13 04:24N 35°22' E 139°52'2 4.4
2018-Jun-13 04:00N 35°23' E 139°50'3 5.3
2018-Jun-13 03:30N 35°26' E 139°49'0 1.0
2018-Jun-13 03:00N 35°26' E 139°50'3 6.1
2018-Jun-13 02:30N 35°23' E 139°51'2 0.2
2018-Jun-12 13:14N 35°22' E 139°54'1 4.0
2018-Jun-12 13:00N 35°22' E 139°53'0 0.1
2018-Jun-12 12:21N 35°22' E 139°53'0 0.2
2018-Jun-12 11:59N 35°22' E 139°53'0 0.1
2018-Jun-12 11:28N 35°22' E 139°53'1 2.1
2018-Jun-12 11:01N 35°22' E 139°52'0 0.2
2018-Jun-12 10:30N 35°22' E 139°52'1 2.5
2018-Jun-12 10:00N 35°23' E 139°51'1 2.6
2018-Jun-12 09:30N 35°21' E 139°51'2 3.4
2018-Jun-12 09:00N 35°22' E 139°49'0 0.1
2018-Jun-12 08:29N 35°22' E 139°49'1 1.4
2018-Jun-12 08:00N 35°22' E 139°50'0 0.0
2018-Jun-12 07:30N 35°22' E 139°50'0 0.0
2018-Jun-12 07:01N 35°22' E 139°50'1 1.8
2018-Jun-12 06:30N 35°22' E 139°51'2 3.5
2018-Jun-12 06:00N 35°23' E 139°49'2 4.3
2018-Jun-12 05:30N 35°24' E 139°51'3 0.6
2018-Jun-12 00:00N 35°22' E 139°54'0 0.0
2018-Jun-11 21:05N 35°22' E 139°54'0 0.0
2018-Jun-11 20:48N 35°22' E 139°54'0 0.0
2018-Jun-11 20:22N 35°22' E 139°54'0 0.0
2018-Jun-11 19:59N 35°22' E 139°54'0 0.0
2018-Jun-11 19:27N 35°22' E 139°54'0 0.0
2018-Jun-11 16:33N 35°22' E 139°54'0 0.0
2018-Jun-11 16:12N 35°22' E 139°54'0 0.0
2018-Jun-11 15:55N 35°22' E 139°54'0 0.0
2018-Jun-11 15:14N 35°22' E 139°54'  

Dump ship's entire track history